Time;durP1;ratioP1;P1;durP2;ratioP2;P2;SDS_P1;SDS_P2;PMS_P1;PMS_P2;Temp;Humidity;BMP_temperature;BMP_pressure;BME280_temperature;BME280_humidity;BME280_pressure;Samples;Min_cycle;Max_cycle;Signal;HPM_P1;HPM_P2
2023/08/15 00:00:15;;;;;;;0.00;0.00;;;;;;;20.22;100.00;101157.72;5073105;28;20029;-47
2023/08/15 00:02:40;;;;;;;0.00;0.00;;;;;;;20.21;100.00;101156.06;5072895;28;20041;-46
2023/08/15 00:05:06;;;;;;;0.00;0.00;;;;;;;20.19;100.00;101144.53;5073180;28;20366;-48
2023/08/15 00:07:31;;;;;;;0.00;0.00;;;;;;;20.13;100.00;101154.50;5073000;28;20120;-48
2023/08/15 00:09:57;;;;;;;0.00;0.00;;;;;;;20.08;100.00;101142.63;5073212;28;20033;-47
2023/08/15 00:12:22;;;;;;;0.00;0.00;;;;;;;20.09;100.00;101147.00;5072719;28;20032;-48
2023/08/15 00:14:47;;;;;;;0.00;0.00;;;;;;;20.15;100.00;101143.34;5072989;28;20103;-50
2023/08/15 00:17:13;;;;;;;0.00;0.00;;;;;;;20.20;100.00;101138.00;5073007;28;20452;-47
2023/08/15 00:19:39;;;;;;;0.00;0.00;;;;;;;20.17;100.00;101152.16;5072644;28;20013;-49
2023/08/15 00:22:04;;;;;;;0.00;0.00;;;;;;;20.13;100.00;101148.22;5072264;28;20067;-46
2023/08/15 00:24:30;;;;;;;0.00;0.00;;;;;;;20.01;100.00;101153.69;5072829;28;20055;-47
2023/08/15 00:26:55;;;;;;;0.00;0.00;;;;;;;19.97;100.00;101151.66;5074384;28;20356;-45
2023/08/15 00:29:20;;;;;;;0.00;0.00;;;;;;;19.93;100.00;101152.16;5073290;28;20016;-47
2023/08/15 00:31:46;;;;;;;0.00;0.00;;;;;;;19.90;100.00;101151.75;5072459;28;20029;-49
2023/08/15 00:34:11;;;;;;;0.00;0.00;;;;;;;19.87;100.00;101158.53;5072293;28;20035;-46
2023/08/15 00:36:37;;;;;;;0.00;0.00;;;;;;;19.84;100.00;101175.41;5072569;28;20028;-45
2023/08/15 00:39:02;;;;;;;0.00;0.00;;;;;;;19.82;100.00;101173.97;5072175;28;20480;-49
2023/08/15 00:41:29;;;;;;;0.00;0.00;;;;;;;19.80;100.00;101170.63;5072463;28;20033;-48
2023/08/15 00:43:55;;;;;;;0.00;0.00;;;;;;;19.81;100.00;101166.84;5071662;28;20041;-45
2023/08/15 00:46:21;;;;;;;0.00;0.00;;;;;;;19.81;100.00;101159.47;5071946;28;20112;-50
2023/08/15 00:48:47;;;;;;;0.00;0.00;;;;;;;19.82;100.00;101166.59;5053928;28;20051;-48
2023/08/15 00:51:13;;;;;;;0.00;0.00;;;;;;;19.82;100.00;101176.69;5072149;28;20041;-48
2023/08/15 00:53:38;;;;;;;0.00;0.00;;;;;;;19.80;100.00;101173.38;5054432;28;20024;-47
2023/08/15 00:56:03;;;;;;;0.00;0.00;;;;;;;19.79;100.00;101180.72;5072158;28;20059;-49
2023/08/15 00:58:29;;;;;;;0.00;0.00;;;;;;;19.77;100.00;101185.59;5071659;28;20055;-49
2023/08/15 01:00:55;;;;;;;0.00;0.00;;;;;;;19.80;100.00;101192.47;5053999;28;20032;-49
2023/08/15 01:03:20;;;;;;;0.00;0.00;;;;;;;19.84;100.00;101191.78;5071943;28;20059;-47
2023/08/15 01:05:47;;;;;;;0.00;0.00;;;;;;;19.89;100.00;101193.81;5053997;28;20036;-48
2023/08/15 01:08:12;;;;;;;0.00;0.00;;;;;;;19.88;100.00;101190.25;5053963;28;20149;-48
2023/08/15 01:10:42;;;;;;;0.00;0.00;;;;;;;19.91;100.00;101191.69;5071821;28;20408;-46
2023/08/15 01:13:32;;;;;;;0.00;0.00;;;;;;;19.93;100.00;101186.78;5054089;28;20627;-47
2023/08/15 01:15:58;;;;;;;0.00;0.00;;;;;;;19.95;100.00;101176.47;5071962;28;20439;-47
2023/08/15 01:18:29;;;;;;;0.00;0.00;;;;;;;19.97;100.00;101179.81;5071274;28;20050;-47
2023/08/15 01:20:55;;;;;;;0.00;0.00;;;;;;;19.97;100.00;101173.53;5051959;28;20040;-47
2023/08/15 01:23:40;;;;;;;0.00;0.00;;;;;;;19.97;100.00;101168.06;5071552;28;20020;-48
2023/08/15 01:26:06;;;;;;;0.00;0.00;;;;;;;19.90;100.00;101174.44;5039403;28;20041;-47
2023/08/15 01:28:32;;;;;;;0.00;0.00;;;;;;;19.87;100.00;101179.56;5071548;28;20033;-47
2023/08/15 01:31:25;;;;;;;0.00;0.00;;;;;;;19.73;100.00;101184.41;5071485;28;20428;-45
2023/08/15 01:34:16;;;;;;;0.00;0.00;;;;;;;19.65;100.00;101188.28;5054051;28;20056;-51
2023/08/15 01:37:14;;;;;;;0.00;0.00;;;;;;;19.60;100.00;101184.59;5054912;28;20491;-44
2023/08/15 01:39:40;;;;;;;0.00;0.00;;;;;;;19.57;100.00;101195.97;5036697;28;20040;-45
2023/08/15 01:42:06;;;;;;;0.00;0.00;;;;;;;19.56;100.00;101188.84;5072932;28;20025;-45
2023/08/15 01:44:33;;;;;;;0.00;0.00;;;;;;;19.58;100.00;101200.34;5054815;28;20070;-47
2023/08/15 01:46:58;;;;;;;0.00;0.00;;;;;;;19.59;100.00;101197.41;5054472;28;20028;-48
2023/08/15 01:49:24;;;;;;;0.00;0.00;;;;;;;19.56;100.00;101200.59;5072307;28;20444;-47
2023/08/15 01:51:54;;;;;;;0.00;0.00;;;;;;;19.55;100.00;101200.84;5071869;28;20028;-46
2023/08/15 01:54:19;;;;;;;0.00;0.00;;;;;;;19.51;100.00;101204.03;5071629;28;20063;-48
2023/08/15 01:56:44;;;;;;;0.00;0.00;;;;;;;19.51;100.00;101208.66;5071543;28;20056;-49
2023/08/15 01:59:10;;;;;;;0.00;0.00;;;;;;;19.52;100.00;101213.03;5070711;28;20044;-51
2023/08/15 02:01:35;;;;;;;0.00;0.00;;;;;;;19.53;100.00;101211.97;5071581;28;20103;-47
2023/08/15 02:04:00;;;;;;;0.00;0.00;;;;;;;19.52;100.00;101218.50;5053387;28;20046;-50
2023/08/15 02:06:26;;;;;;;0.00;0.00;;;;;;;19.50;100.00;101218.72;5071893;28;20497;-48
2023/08/15 02:08:51;;;;;;;0.00;0.00;;;;;;;19.48;100.00;101230.94;5072232;28;20028;-48
2023/08/15 02:11:16;;;;;;;0.00;0.00;;;;;;;19.42;100.00;101224.50;5071426;28;20360;-47
2023/08/15 02:13:42;;;;;;;0.00;0.00;;;;;;;19.39;100.00;101232.34;5053512;28;20024;-47
2023/08/15 02:16:07;;;;;;;0.00;0.00;;;;;;;19.40;100.00;101234.00;5053090;28;20063;-47
2023/08/15 02:18:33;;;;;;;0.00;0.00;;;;;;;19.41;100.00;101222.88;5072969;28;20035;-49
2023/08/15 02:20:58;;;;;;;0.00;0.00;;;;;;;19.35;100.00;101221.03;5075105;28;20029;-45
2023/08/15 02:23:23;;;;;;;0.00;0.00;;;;;;;19.30;100.00;101219.03;5075347;28;20134;-48
2023/08/15 02:25:49;;;;;;;0.00;0.00;;;;;;;19.26;100.00;101238.81;5057215;28;20040;-45
2023/08/15 02:28:14;;;;;;;0.00;0.00;;;;;;;19.20;100.00;101228.81;5074944;28;20032;-49
2023/08/15 02:30:40;;;;;;;0.00;0.00;;;;;;;19.22;100.00;101237.59;5074523;28;20052;-45
2023/08/15 02:33:06;;;;;;;0.00;0.00;;;;;;;19.15;100.00;101236.88;5075005;28;20029;-47
2023/08/15 02:35:32;;;;;;;0.00;0.00;;;;;;;19.14;100.00;101229.72;5074828;28;20024;-47
2023/08/15 02:37:57;;;;;;;0.00;0.00;;;;;;;19.11;100.00;101227.47;5073985;28;20107;-47
2023/08/15 02:40:24;;;;;;;0.00;0.00;;;;;;;19.08;100.00;101240.47;5074549;28;20654;-48
2023/08/15 02:42:50;;;;;;;0.00;0.00;;;;;;;19.08;100.00;101231.47;5074158;28;20028;-47
2023/08/15 02:45:15;;;;;;;0.00;0.00;;;;;;;19.03;100.00;101234.06;5074500;28;20372;-46
2023/08/15 02:47:40;;;;;;;0.00;0.00;;;;;;;19.05;100.00;101232.75;5074157;28;20031;-48
2023/08/15 02:50:06;;;;;;;0.00;0.00;;;;;;;19.02;100.00;101241.41;5074112;28;20029;-46
2023/08/15 02:52:31;;;;;;;0.00;0.00;;;;;;;18.98;100.00;101248.38;5074618;28;20352;-45
2023/08/15 02:54:57;;;;;;;0.00;0.00;;;;;;;18.95;100.00;101254.28;5074975;28;20028;-48
2023/08/15 02:57:22;;;;;;;0.00;0.00;;;;;;;18.96;100.00;101255.16;5074787;28;20113;-46
2023/08/15 02:59:48;;;;;;;0.00;0.00;;;;;;;18.95;100.00;101267.94;5074315;28;20049;-47
2023/08/15 03:02:15;;;;;;;0.00;0.00;;;;;;;18.92;100.00;101260.19;5074456;28;20033;-47
2023/08/15 03:04:41;;;;;;;;;;;;;;;18.90;100.00;101267.78;5075286;28;20037;-49
2023/08/15 03:07:06;;;;;;;0.00;0.00;;;;;;;18.87;100.00;101268.22;5074529;28;19909;-47
2023/08/15 03:09:32;;;;;;;0.00;0.00;;;;;;;18.83;100.00;101269.75;5074757;28;20013;-47
2023/08/15 03:11:57;;;;;;;0.00;0.00;;;;;;;18.82;100.00;101271.63;5074197;28;20046;-47
2023/08/15 03:14:22;;;;;;;0.00;0.00;;;;;;;18.81;100.00;101277.31;5074327;28;20105;-48
2023/08/15 03:16:48;;;;;;;0.00;0.00;;;;;;;18.81;100.00;101274.59;5073891;28;20513;-45
2023/08/15 03:19:13;;;;;;;0.00;0.00;;;;;;;18.81;100.00;101274.59;5074176;28;20028;-50
2023/08/15 03:21:38;;;;;;;0.00;0.00;;;;;;;18.79;100.00;101282.16;5073917;28;20043;-48
2023/08/15 03:24:04;;;;;;;0.00;0.00;;;;;;;18.80;100.00;101283.81;5074113;28;20029;-48
2023/08/15 03:26:29;;;;;;;0.00;0.00;;;;;;;18.79;100.00;101276.72;5073675;28;20157;-51
2023/08/15 03:28:56;;;;;;;0.00;0.00;;;;;;;18.77;100.00;101278.81;5056049;28;20025;-48
2023/08/15 03:31:22;;;;;;;0.00;0.00;;;;;;;18.74;100.00;101279.25;5073960;28;20041;-48
2023/08/15 03:33:47;;;;;;;0.00;0.00;;;;;;;18.73;100.00;101274.88;5073426;28;20021;-47
2023/08/15 03:36:13;;;;;;;0.00;0.00;;;;;;;18.72;100.00;101281.34;5073519;28;20479;-47
2023/08/15 03:38:41;;;;;;;0.00;0.00;;;;;;;18.71;100.00;101296.06;5073744;28;20455;-45
2023/08/15 03:41:06;;;;;;;;;;;;;;;18.70;100.00;101294.41;5074296;28;20036;-50
2023/08/15 03:43:32;;;;;;;0.00;0.00;;;;;;;18.68;100.00;101302.78;5073746;28;19913;-47
2023/08/15 03:45:58;;;;;;;0.00;0.00;;;;;;;18.69;100.00;101309.06;5073550;28;20081;-48
2023/08/15 03:48:23;;;;;;;0.00;0.00;;;;;;;18.63;100.00;101311.63;5073366;28;20028;-46
2023/08/15 03:50:53;;;;;;;0.00;0.00;;;;;;;18.60;100.00;101311.25;5073603;28;20033;-47
2023/08/15 03:53:18;;;;;;;0.00;0.00;;;;;;;18.57;100.00;101319.91;5073344;28;20382;-48
2023/08/15 03:55:43;;;;;;;0.00;0.00;;;;;;;18.52;100.00;101330.63;5073231;28;20031;-48
2023/08/15 03:58:09;;;;;;;0.00;0.00;;;;;;;18.53;100.00;101337.75;5073275;28;20045;-50
2023/08/15 04:00:34;;;;;;;0.00;0.00;;;;;;;18.55;100.00;101341.09;5073349;28;20024;-47
2023/08/15 04:03:00;;;;;;;0.00;0.00;;;;;;;18.54;100.00;101333.97;5073732;28;20028;-47
2023/08/15 04:05:26;;;;;;;0.00;0.00;;;;;;;18.52;100.00;101336.09;5073713;28;20033;-45
2023/08/15 04:07:51;;;;;;;0.00;0.00;;;;;;;18.48;100.00;101341.13;5073225;28;20402;-49
2023/08/15 04:10:17;;;;;;;0.00;0.00;;;;;;;18.47;100.00;101344.91;5073404;28;20043;-48
2023/08/15 04:12:44;;;;;;;0.00;0.00;;;;;;;18.50;100.00;101341.75;5073266;28;20033;-47
2023/08/15 04:15:09;;;;;;;0.00;0.00;;;;;;;18.54;100.00;101339.44;5073364;28;20024;-46
2023/08/15 04:17:35;;;;;;;0.00;0.00;;;;;;;18.53;100.00;101338.56;5072739;28;20062;-51
2023/08/15 04:20:00;;;;;;;0.00;0.00;;;;;;;18.50;100.00;101333.56;5073164;28;20033;-46
2023/08/15 04:22:26;;;;;;;0.00;0.00;;;;;;;18.47;100.00;101331.28;5072953;28;20474;-48
2023/08/15 04:24:51;;;;;;;0.00;0.00;;;;;;;18.45;100.00;101330.66;5072869;28;20063;-51
2023/08/15 04:27:16;;;;;;;0.00;0.00;;;;;;;18.43;100.00;101330.91;5072457;28;20474;-48
2023/08/15 04:29:43;;;;;;;0.00;0.00;;;;;;;18.43;100.00;101322.75;5072803;28;20029;-47
2023/08/15 04:32:08;;;;;;;0.00;0.00;;;;;;;18.42;100.00;101331.94;5072771;28;20481;-47
2023/08/15 04:34:34;;;;;;;0.00;0.00;;;;;;;18.38;100.00;101324.47;5072711;28;20163;-46
2023/08/15 04:36:59;;;;;;;0.00;0.00;;;;;;;18.43;100.00;101324.59;5071476;28;20368;-48
2023/08/15 04:39:24;;;;;;;0.00;0.00;;;;;;;18.43;100.00;101324.59;5072806;28;20031;-48
2023/08/15 04:41:50;;;;;;;0.00;0.00;;;;;;;18.46;100.00;101320.59;5072321;28;20027;-48
2023/08/15 04:44:15;;;;;;;0.00;0.00;;;;;;;18.44;100.00;101320.84;5072483;28;20029;-47
2023/08/15 04:46:41;;;;;;;0.00;0.00;;;;;;;18.42;100.00;101322.94;5057484;28;20052;-50
2023/08/15 04:49:06;;;;;;;0.00;0.00;;;;;;;18.41;100.00;101324.84;5072062;28;20636;-49
2023/08/15 04:51:32;;;;;;;0.00;0.00;;;;;;;18.46;100.00;101331.50;5072353;28;20029;-50
2023/08/15 04:53:57;;;;;;;0.00;0.00;;;;;;;18.45;100.00;101330.66;5072365;28;20029;-46
2023/08/15 04:56:22;;;;;;;0.00;0.00;;;;;;;18.46;100.00;101326.06;5072018;28;20032;-48
2023/08/15 04:58:48;;;;;;;0.00;0.00;;;;;;;18.47;100.00;101336.75;5071953;28;20048;-47
2023/08/15 05:01:13;;;;;;;0.00;0.00;;;;;;;18.59;100.00;101331.41;5072484;28;20342;-48
2023/08/15 05:03:39;;;;;;;0.00;0.00;;;;;;;18.69;100.00;101339.06;5072417;28;20056;-47
2023/08/15 05:06:04;;;;;;;0.00;0.00;;;;;;;18.71;100.00;101335.06;5072718;28;20651;-47
2023/08/15 05:08:30;;;;;;;0.00;0.00;;;;;;;18.75;100.00;101330.03;5072437;28;20037;-48
2023/08/15 05:10:55;;;;;;;0.00;0.00;;;;;;;18.80;100.00;101335.63;5073306;28;20025;-46
2023/08/15 05:13:21;;;;;;;0.00;0.00;;;;;;;18.75;100.00;101335.50;5072385;28;20029;-47
2023/08/15 05:15:46;;;;;;;0.00;0.00;;;;;;;18.78;100.00;101345.94;5072037;28;20086;-47
2023/08/15 05:18:13;;;;;;;0.00;0.00;;;;;;;18.72;100.00;101341.34;5072065;28;20037;-45
2023/08/15 05:20:38;;;;;;;0.00;0.00;;;;;;;18.70;100.00;101351.66;5069452;28;20534;-47
2023/08/15 05:23:04;;;;;;;0.00;0.00;;;;;;;18.68;100.00;101356.50;5052009;28;20167;-47
2023/08/15 05:25:29;;;;;;;0.00;0.00;;;;;;;18.65;100.00;101357.78;5052090;28;20036;-48
2023/08/15 05:27:55;;;;;;;0.00;0.00;;;;;;;18.68;100.00;101351.88;5057278;28;20025;-49
2023/08/15 05:30:20;;;;;;;0.00;0.00;;;;;;;18.77;100.00;101355.16;5070964;28;20122;-46
2023/08/15 05:32:45;;;;;;;0.00;0.00;;;;;;;18.79;100.00;101358.50;5051085;28;20361;-47
2023/08/15 05:35:12;;;;;;;0.10;0.00;;;;;;;18.79;100.00;101358.50;5071225;28;20032;-46
2023/08/15 05:37:37;;;;;;;0.00;0.00;;;;;;;18.87;100.00;101360.97;5071596;28;20052;-46
2023/08/15 05:40:04;;;;;;;0.00;0.00;;;;;;;18.97;100.00;101364.00;5071640;28;20052;-48
2023/08/15 05:42:29;;;;;;;0.00;0.00;;;;;;;19.01;100.00;101357.06;5071889;28;20024;-50
2023/08/15 05:44:54;;;;;;;0.00;0.00;;;;;;;19.11;100.00;101361.13;5071010;28;20058;-50
2023/08/15 05:47:20;;;;;;;0.00;0.00;;;;;;;19.28;100.00;101363.06;5071771;28;20487;-47
2023/08/15 05:49:46;;;;;;;0.00;0.00;;;;;;;19.30;100.00;101360.09;5053699;28;20474;-50
2023/08/15 05:52:11;;;;;;;0.00;0.00;;;;;;;19.59;100.00;101350.31;5052799;28;20036;-47
2023/08/15 05:54:37;;;;;;;0.00;0.00;;;;;;;20.01;100.00;101350.41;5055660;28;20056;-47
2023/08/15 05:57:03;;;;;;;0.00;0.00;;;;;;;20.51;100.00;101344.59;5074335;28;20501;-45
2023/08/15 05:59:28;;;;;;;0.00;0.00;;;;;;;21.02;100.00;101332.13;5076642;28;20048;-46
2023/08/15 06:01:53;;;;;;;0.00;0.00;;;;;;;21.22;100.00;101315.31;5076472;28;20025;-46
2023/08/15 06:04:19;;;;;;;0.00;0.00;;;;;;;21.10;100.00;101325.44;5077928;28;20120;-47
2023/08/15 06:06:44;;;;;;;0.00;0.00;;;;;;;21.11;100.00;101327.09;5076086;28;20100;-47
2023/08/15 06:09:09;;;;;;;0.00;0.00;;;;;;;21.15;100.00;101328.28;5075769;28;20028;-47
2023/08/15 06:11:35;;;;;;;0.00;0.00;;;;;;;20.96;100.00;101329.53;5075981;28;20474;-45
2023/08/15 06:14:00;;;;;;;0.00;0.00;;;;;;;20.83;100.00;101339.63;5076198;28;20055;-47
2023/08/15 06:16:26;;;;;;;0.00;0.00;;;;;;;20.53;100.00;101347.06;5076549;28;20144;-47
2023/08/15 06:18:52;;;;;;;0.00;0.00;;;;;;;20.08;100.00;101350.28;5076633;28;20378;-46
2023/08/15 06:21:17;;;;;;;0.00;0.00;;;;;;;19.90;100.00;101360.19;5076007;28;20020;-47
2023/08/15 06:23:42;;;;;;;0.00;0.00;;;;;;;19.71;100.00;101377.69;5075756;28;20024;-49
2023/08/15 06:26:08;;;;;;;0.00;0.00;;;;;;;19.66;100.00;101386.56;5075067;28;20031;-45
2023/08/15 06:28:33;;;;;;;0.00;0.00;;;;;;;19.59;100.00;101390.41;5057008;28;20376;-45
2023/08/15 06:30:59;;;;;;;0.00;0.00;;;;;;;19.50;100.00;101398.91;5074800;28;20029;-46
2023/08/15 06:33:24;;;;;;;0.00;0.00;;;;;;;19.59;100.00;101402.19;5074658;28;20091;-48
2023/08/15 06:35:50;;;;;;;0.00;0.00;;;;;;;19.72;100.00;101409.38;5075078;28;20028;-49
2023/08/15 06:38:15;;;;;;;0.00;0.00;;;;;;;19.93;100.00;101408.94;5074631;28;20367;-49
2023/08/15 06:40:40;;;;;;;0.00;0.00;;;;;;;20.16;100.00;101413.66;5074942;28;20429;-50
2023/08/15 06:43:06;;;;;;;0.00;0.00;;;;;;;20.20;100.00;101416.75;5074449;28;20481;-46
2023/08/15 06:45:31;;;;;;;0.00;0.00;;;;;;;20.12;100.00;101412.44;5074256;28;20024;-46
2023/08/15 06:47:56;;;;;;;0.00;0.00;;;;;;;20.01;100.00;101409.66;5074834;28;20036;-48
2023/08/15 06:50:22;;;;;;;0.00;0.00;;;;;;;20.04;100.00;101401.84;5074651;28;20036;-49
2023/08/15 06:52:47;;;;;;;0.00;0.00;;;;;;;19.95;100.00;101404.03;5074732;28;20024;-47
2023/08/15 06:55:12;;;;;;;0.00;0.00;;;;;;;19.86;100.00;101408.19;5074207;28;20043;-48
2023/08/15 06:57:38;;;;;;;0.00;0.00;;;;;;;19.95;100.00;101400.50;5073788;28;20048;-47
2023/08/15 07:00:07;;;;;;;0.00;0.00;;;;;;;20.01;100.00;101404.19;5074134;28;20068;-48
2023/08/15 07:02:32;;;;;;;0.00;0.00;;;;;;;20.14;100.00;101409.47;5074235;28;20060;-48
2023/08/15 07:04:58;;;;;;;0.00;0.00;;;;;;;20.18;100.00;101411.53;5073641;28;20060;-49
2023/08/15 07:07:23;;;;;;;0.00;0.00;;;;;;;20.41;100.00;101409.13;5074361;28;20443;-47
2023/08/15 07:09:49;;;;;;;0.00;0.00;;;;;;;20.79;100.00;101409.56;5074638;28;20029;-45
2023/08/15 07:12:17;;;;;;;0.00;0.00;;;;;;;21.69;100.00;101397.38;5074173;28;20394;-48
2023/08/15 07:14:45;;;;;;;0.00;0.00;;;;;;;22.21;100.00;101384.69;5073488;28;20524;-45
2023/08/15 07:17:11;;;;;;;;;;;;;;;22.81;100.00;101378.59;5054748;28;20158;-50
2023/08/15 07:19:36;;;;;;;0.00;0.00;;;;;;;23.43;100.00;101372.06;5073785;28;19935;-48
2023/08/15 07:22:01;;;;;;;0.00;0.00;;;;;;;23.64;100.00;101376.75;5073863;28;20031;-48
2023/08/15 07:24:27;;;;;;;0.00;0.00;;;;;;;23.32;100.00;101386.75;5074505;28;20150;-48
2023/08/15 07:26:52;;;;;;;0.00;0.00;;;;;;;22.77;100.00;101385.63;5073949;28;20025;-45
2023/08/15 07:29:17;;;;;;;0.00;0.00;;;;;;;22.83;100.00;101387.41;5073881;28;20056;-48
2023/08/15 07:31:43;;;;;;;0.00;0.00;;;;;;;22.82;100.00;101396.69;5073098;28;20032;-46
2023/08/15 07:34:08;;;;;;;0.00;0.00;;;;;;;22.78;100.00;101395.56;5072483;28;20386;-47
2023/08/15 07:36:34;;;;;;;0.00;0.00;;;;;;;22.17;100.00;101399.94;5054943;28;20109;-45
2023/08/15 07:38:59;;;;;;;0.00;0.00;;;;;;;22.03;100.00;101399.41;5073209;28;20023;-46
2023/08/15 07:41:25;;;;;;;0.00;0.00;;;;;;;21.94;100.00;101409.94;5072977;28;20434;-47
2023/08/15 07:43:50;;;;;;;0.00;0.00;;;;;;;21.82;100.00;101411.88;5073684;28;20104;-47
2023/08/15 07:46:15;;;;;;;0.00;0.00;;;;;;;21.42;100.00;101409.94;5073880;28;20086;-44
2023/08/15 07:48:42;;;;;;;0.00;0.00;;;;;;;21.24;100.00;101419.09;5074048;28;20027;-43
2023/08/15 07:51:08;;;;;;;0.00;0.00;;;;;;;21.05;100.00;101426.59;5073370;28;20039;-45
2023/08/15 07:53:33;;;;;;;0.00;0.00;;;;;;;20.93;100.00;101428.47;5073571;28;20104;-46
2023/08/15 07:55:59;;;;;;;0.00;0.00;;;;;;;20.87;100.00;101434.91;5073388;28;20390;-48
2023/08/15 07:58:24;;;;;;;0.00;0.00;;;;;;;20.99;100.00;101446.72;5072673;28;20064;-47
2023/08/15 08:00:50;;;;;;;0.00;0.00;;;;;;;20.99;100.00;101446.72;5072411;28;20429;-49
2023/08/15 08:03:16;;;;;;;0.00;0.00;;;;;;;20.93;100.00;101453.09;5073014;28;20025;-45
2023/08/15 08:05:42;;;;;;;0.00;0.00;;;;;;;21.03;100.00;101456.09;5054795;28;20492;-48
2023/08/15 08:08:08;;;;;;;0.00;0.00;;;;;;;20.91;100.00;101463.47;5073049;28;20166;-45
2023/08/15 08:10:33;;;;;;;0.00;0.00;;;;;;;20.64;100.00;101480.28;5072109;28;20107;-45
2023/08/15 08:12:59;;;;;;;0.00;0.00;;;;;;;20.43;100.00;101480.78;5072400;28;20108;-48
2023/08/15 08:15:25;;;;;;;0.00;0.00;;;;;;;20.47;100.00;101493.75;5071855;28;20029;-46
2023/08/15 08:17:51;;;;;;;0.00;0.00;;;;;;;20.32;100.00;101499.63;5072491;28;20032;-46
2023/08/15 08:20:18;;;;;;;0.00;0.00;;;;;;;20.19;100.00;101513.47;5059635;28;20039;-48
2023/08/15 08:22:43;;;;;;;0.00;0.00;;;;;;;19.95;100.00;101520.69;5064449;28;20043;-45
2023/08/15 08:25:17;;;;;;;0.00;0.00;;;;;;;19.86;100.00;101522.91;5070478;28;20157;-45
2023/08/15 08:27:46;;;;;;;0.00;0.00;;;;;;;19.87;100.00;101535.50;5064568;28;20036;-47
2023/08/15 08:30:12;;;;;;;0.00;0.00;;;;;;;19.93;100.00;101529.13;5072473;28;20041;-46
2023/08/15 08:32:38;;;;;;;0.00;0.00;;;;;;;20.03;100.00;101535.97;5072877;28;20040;-45
2023/08/15 08:35:05;;;;;;;0.00;0.00;;;;;;;20.03;100.00;101527.75;5073067;28;20024;-46
2023/08/15 08:37:31;;;;;;;0.00;0.00;;;;;;;20.56;100.00;101538.03;5071756;28;20032;-46
2023/08/15 08:39:56;;;;;;;0.00;0.00;;;;;;;20.95;100.00;101538.53;5072471;28;20087;-46
2023/08/15 08:42:22;;;;;;;0.00;0.00;;;;;;;21.19;100.00;101520.25;5072103;28;20127;-45
2023/08/15 08:44:48;;;;;;;0.00;0.00;;;;;;;21.10;100.00;101508.81;5037703;28;20647;-45
2023/08/15 08:47:14;;;;;;;0.00;0.00;;;;;;;21.03;100.00;101494.41;5072124;28;20025;-46
2023/08/15 08:49:40;;;;;;;0.00;0.00;;;;;;;20.78;100.00;101502.81;5071207;28;20443;-45
2023/08/15 08:52:06;;;;;;;0.00;0.00;;;;;;;20.59;100.00;101504.78;5054140;28;20067;-45
2023/08/15 08:54:32;;;;;;;0.00;0.00;;;;;;;20.34;100.00;101507.59;5071670;28;20052;-47
2023/08/15 08:56:58;;;;;;;0.00;0.00;;;;;;;19.96;100.00;101516.91;5071192;28;20028;-47
2023/08/15 08:59:25;;;;;;;0.00;0.00;;;;;;;19.81;100.00;101533.69;5072231;28;20037;-48
2023/08/15 09:01:51;;;;;;;0.00;0.00;;;;;;;19.59;100.00;101538.72;5071594;28;20359;-48
2023/08/15 09:04:19;;;;;;;;;;;;;;;19.50;100.00;101545.50;5054767;28;20068;-46
2023/08/15 09:06:44;;;;;;;0.00;0.00;;;;;;;19.50;100.00;101554.53;5054138;28;19935;-48
2023/08/15 09:09:10;;;;;;;0.00;0.00;;;;;;;19.52;100.00;101557.88;5071899;28;20430;-47
2023/08/15 09:11:36;;;;;;;0.00;0.00;;;;;;;19.75;100.00;101561.91;5071967;28;20032;-48
2023/08/15 09:14:03;;;;;;;0.00;0.00;;;;;;;19.83;100.00;101564.34;5063578;28;20036;-49
2023/08/15 09:16:29;;;;;;;0.00;0.00;;;;;;;19.71;100.00;101547.00;5071856;28;20029;-45
2023/08/15 09:18:54;;;;;;;0.00;0.00;;;;;;;19.94;100.00;101549.09;5070675;28;20115;-47
2023/08/15 09:21:21;;;;;;;0.00;0.00;;;;;;;20.03;100.00;101550.44;5071749;28;20571;-50
2023/08/15 09:23:46;;;;;;;0.00;0.00;;;;;;;20.22;100.00;101544.97;5070111;28;20029;-45
2023/08/15 09:26:16;;;;;;;0.00;0.00;;;;;;;20.13;100.00;101534.34;5053066;28;20040;-45
2023/08/15 09:28:42;;;;;;;0.00;0.00;;;;;;;20.42;100.00;101537.38;5070982;28;20377;-45
2023/08/15 09:31:09;;;;;;;0.00;0.00;;;;;;;20.31;100.00;101538.97;5070340;28;20024;-44
2023/08/15 09:33:35;;;;;;;0.00;0.00;;;;;;;20.50;100.00;101528.84;5070322;28;20020;-47
2023/08/15 09:36:03;;;;;;;0.00;0.00;;;;;;;20.75;100.00;101528.75;5071338;28;20550;-48
2023/08/15 09:38:29;;;;;;;0.00;0.00;;;;;;;21.00;100.00;101528.56;5053173;28;20112;-49
2023/08/15 09:40:55;;;;;;;0.00;0.00;;;;;;;21.29;100.00;101525.16;5053891;28;20413;-47
2023/08/15 09:43:21;;;;;;;0.00;0.00;;;;;;;21.00;100.00;101516.78;5071410;28;20016;-46
2023/08/15 09:45:46;;;;;;;0.00;0.00;;;;;;;20.98;100.00;101510.69;5071671;28;20103;-45
2023/08/15 09:48:12;;;;;;;0.00;0.00;;;;;;;21.00;100.00;101522.25;5053399;28;20107;-44
2023/08/15 09:50:38;;;;;;;0.00;0.00;;;;;;;20.90;100.00;101520.06;5053443;28;20116;-46
2023/08/15 09:53:04;;;;;;;0.00;0.00;;;;;;;21.02;100.00;101536.53;5071504;28;20084;-47
2023/08/15 09:55:30;;;;;;;0.00;0.00;;;;;;;21.04;100.00;101540.72;5070328;28;20031;-46
2023/08/15 09:57:56;;;;;;;0.00;0.00;;;;;;;21.06;100.00;101543.19;5070566;28;20024;-43
2023/08/15 10:00:21;;;;;;;0.00;0.00;;;;;;;20.99;100.00;101547.97;5071042;28;20047;-50
2023/08/15 10:02:53;;;;;;;0.00;0.00;;;;;;;20.63;100.00;101544.25;5071211;28;20103;-48
2023/08/15 10:05:20;;;;;;;0.00;0.00;;;;;;;20.81;100.00;101549.69;5071276;28;20025;-43
2023/08/15 10:07:46;;;;;;;0.00;0.00;;;;;;;20.69;100.00;101543.31;5071290;28;20024;-46
2023/08/15 10:10:14;;;;;;;0.00;0.00;;;;;;;20.77;100.00;101544.91;5070734;28;21251;-43
2023/08/15 10:12:40;;;;;;;0.00;0.00;;;;;;;20.89;100.00;101553.16;5071548;28;20032;-44
2023/08/15 10:15:07;;;;;;;0.00;0.00;;;;;;;21.24;100.00;101556.78;5053947;28;20643;-48
2023/08/15 10:17:32;;;;;;;0.00;0.00;;;;;;;21.72;100.00;101554.13;5071705;28;20435;-44
2023/08/15 10:20:02;;;;;;;0.00;0.00;;;;;;;22.04;100.00;101558.16;5057710;28;20036;-46
2023/08/15 10:22:29;;;;;;;0.00;0.00;;;;;;;22.31;100.00;101558.47;5074385;28;20032;-46
2023/08/15 10:24:54;;;;;;;0.00;0.00;;;;;;;22.33;100.00;101545.34;5073461;28;20081;-47
2023/08/15 10:27:20;;;;;;;0.00;0.00;;;;;;;22.38;100.00;101546.53;5071341;28;20040;-47
2023/08/15 10:29:59;;;;;;;0.00;0.00;;;;;;;22.79;100.00;101556.38;5070967;28;20032;-47
2023/08/15 10:32:25;;;;;;;0.00;0.00;;;;;;;23.31;100.00;101556.22;5070026;28;20041;-44
2023/08/15 10:34:57;;;;;;;0.00;0.00;;;;;;;23.42;100.00;101549.78;5071520;28;20024;-44
2023/08/15 10:37:28;;;;;;;0.00;0.00;;;;;;;23.50;100.00;101553.22;5070259;28;20112;-44
2023/08/15 10:40:11;;;;;;;0.00;0.00;;;;;;;23.91;100.00;101543.69;5072062;28;20401;-44
2023/08/15 10:43:12;;;;;;;0.00;0.00;;;;;;;23.73;100.00;101549.47;5071349;28;20024;-49
2023/08/15 10:45:46;;;;;;;0.00;0.00;;;;;;;23.52;100.00;101554.63;5005839;28;20044;-44
2023/08/15 10:48:12;;;;;;;0.00;0.00;;;;;;;23.52;100.00;101554.63;5065614;28;20072;-44
2023/08/15 10:50:46;;;;;;;0.00;0.00;;;;;;;23.76;100.00;101560.78;5075007;28;20119;-46
2023/08/15 10:53:12;;;;;;;0.00;0.00;;;;;;;23.93;100.00;101554.41;5074816;28;20036;-45
2023/08/15 10:55:38;;;;;;;0.00;0.00;;;;;;;24.28;100.00;101554.88;5066344;28;20028;-46
2023/08/15 10:58:06;;;;;;;0.00;0.00;;;;;;;24.55;100.00;101561.56;5068748;28;20033;-48
2023/08/15 11:00:32;;;;;;;0.00;0.00;;;;;;;25.36;100.00;101562.34;5074127;28;20442;-43
2023/08/15 11:02:58;;;;;;;0.00;0.00;;;;;;;24.54;100.00;101566.22;5073327;28;20024;-45
2023/08/15 11:05:38;;;;;;;0.00;0.00;;;;;;;24.96;100.00;101573.81;5073853;28;20048;-45
2023/08/15 11:08:15;;;;;;;0.00;0.00;;;;;;;24.73;100.00;101567.53;5074305;28;20526;-49
2023/08/15 11:10:48;;;;;;;0.00;0.00;;;;;;;25.04;100.00;101570.59;5074428;28;20374;-46
2023/08/15 11:13:16;;;;;;;0.00;0.00;;;;;;;25.38;100.00;101570.34;5074901;28;20157;-47
2023/08/15 11:15:43;;;;;;;0.00;0.00;;;;;;;26.12;100.00;101574.16;5074307;28;20028;-46